createdAt,value
2019-05-05T00:01:42.064Z,96747.37
2019-05-05T00:04:19.502Z,96745.19
2019-05-05T00:06:49.012Z,96739.21
2019-05-05T00:09:18.470Z,96740.23
2019-05-05T00:12:09.805Z,96738.36
2019-05-05T00:14:58.340Z,96737.41
2019-05-05T00:17:28.909Z,96730.47
2019-05-05T00:19:58.863Z,96730.47
2019-05-05T00:22:28.345Z,96734.02
2019-05-05T00:24:57.871Z,96736.97
2019-05-05T00:27:27.407Z,96738.56
2019-05-05T00:29:56.944Z,96740.18
2019-05-05T00:32:26.526Z,96731.11
2019-05-05T00:34:56.051Z,96740.94
2019-05-05T00:37:25.838Z,96739.42
2019-05-05T00:39:55.360Z,96735.11
2019-05-05T00:42:25.114Z,96739.94
2019-05-05T00:44:55.023Z,96753.84
2019-05-05T00:47:41.954Z,96753.95
2019-05-05T00:50:14.574Z,96771.30
2019-05-05T00:52:44.606Z,96768.58
2019-05-05T00:55:15.146Z,96770.16
2019-05-05T00:57:45.449Z,96777.70
2019-05-05T01:00:24.785Z,96778.41
2019-05-05T01:02:54.515Z,96776.95
2019-05-05T01:05:36.904Z,96779.42
2019-05-05T01:08:10.639Z,96790.72
2019-05-05T01:10:40.245Z,96789.32
2019-05-05T01:13:09.917Z,96794.16
2019-05-05T01:15:39.500Z,96789.97
2019-05-05T01:18:09.074Z,96780.47
2019-05-05T01:20:38.683Z,96778.94
2019-05-05T01:23:08.257Z,96790.02
2019-05-05T01:25:37.894Z,96792.50
2019-05-05T01:28:07.672Z,96796.47
2019-05-05T01:30:39.644Z,96798.38
2019-05-05T01:33:28.309Z,96805.67
2019-05-05T01:35:58.014Z,96804.49
2019-05-05T01:38:34.282Z,96812.95
2019-05-05T01:41:09.612Z,96816.02
2019-05-05T01:43:39.175Z,96815.80
2019-05-05T01:46:08.798Z,96817.14
2019-05-05T01:48:38.491Z,96810.05
2019-05-05T01:51:08.098Z,96814.53
2019-05-05T01:53:37.617Z,96812.86
2019-05-05T01:56:07.269Z,96811.42
2019-05-05T01:58:36.867Z,96823.27
2019-05-05T02:01:06.508Z,96825.14
2019-05-05T02:03:36.238Z,96827.72
2019-05-05T02:06:05.848Z,96823.42
2019-05-05T02:08:35.434Z,96823.39
2019-05-05T02:11:05.341Z,96819.66
2019-05-05T02:13:34.953Z,96824.04
2019-05-05T02:16:04.841Z,96816.34
2019-05-05T02:18:34.726Z,96817.67
2019-05-05T02:21:06.643Z,96816.89
2019-05-05T02:23:37.243Z,96817.38
2019-05-05T02:26:08.020Z,96815.66
2019-05-05T02:28:46.968Z,96816.54
2019-05-05T02:31:25.910Z,96809.14
2019-05-05T02:33:56.786Z,96817.38
2019-05-05T02:36:26.742Z,96812.80
2019-05-05T02:38:56.846Z,96812.55
2019-05-05T02:41:26.555Z,96813.72
2019-05-05T02:43:56.624Z,96812.89
2019-05-05T02:46:35.596Z,96803.31
2019-05-05T02:49:05.705Z,96804.70
2019-05-05T02:51:35.756Z,96801.86
2019-05-05T02:54:05.861Z,96809.61
2019-05-05T02:56:43.929Z,96809.67
2019-05-05T02:59:18.423Z,96810.11
2019-05-05T03:01:53.941Z,96805.75
2019-05-05T03:04:24.510Z,96804.49
2019-05-05T03:06:55.642Z,96808.04
2019-05-05T03:09:26.388Z,96803.72
2019-05-05T03:11:57.653Z,96807.95
2019-05-05T03:14:27.990Z,96807.09
2019-05-05T03:16:57.671Z,96802.13
2019-05-05T03:19:27.414Z,96812.62
2019-05-05T03:21:57.027Z,96808.89
2019-05-05T03:24:26.618Z,96809.50
2019-05-05T03:26:56.495Z,96814.67
2019-05-05T03:29:26.683Z,96818.83
2019-05-05T03:31:57.457Z,96814.67
2019-05-05T03:34:27.641Z,96824.42
2019-05-05T03:36:57.353Z,96824.64
2019-05-05T03:39:28.560Z,96825.89
2019-05-05T03:42:05.041Z,96825.23
2019-05-05T03:44:41.301Z,96832.80
2019-05-05T03:47:11.071Z,96833.79
2019-05-05T03:49:40.646Z,96838.21
2019-05-05T03:52:10.283Z,96829.87
2019-05-05T03:54:39.785Z,96842.70
2019-05-05T03:57:09.383Z,96837.89
2019-05-05T03:59:41.164Z,96854.70
2019-05-05T04:02:29.824Z,96860.55
2019-05-05T04:05:05.376Z,96860.52
2019-05-05T04:07:34.996Z,96864.59
2019-05-05T04:10:04.824Z,96866.17
2019-05-05T04:12:34.701Z,96872.72
2019-05-05T04:15:05.032Z,96872.58
2019-05-05T04:17:58.056Z,96877.52
2019-05-05T04:20:33.850Z,96879.39
2019-05-05T04:23:03.860Z,96879.19
2019-05-05T04:25:34.977Z,96883.97
2019-05-05T04:28:04.682Z,96881.70
2019-05-05T04:30:34.262Z,96889.76
2019-05-05T04:33:05.162Z,96899.89
2019-05-05T04:35:35.259Z,96890.38
2019-05-05T04:38:05.624Z,96895.70
2019-05-05T04:40:35.269Z,96890.83
2019-05-05T04:43:04.857Z,96896.78
2019-05-05T04:45:34.806Z,96901.60
2019-05-05T04:48:14.928Z,96903.08
2019-05-05T04:50:56.086Z,96904.08
2019-05-05T04:53:44.590Z,96913.16
2019-05-05T04:56:15.378Z,96913.94
2019-05-05T04:58:44.883Z,96917.06
2019-05-05T05:01:14.394Z,96929.20
2019-05-05T05:04:09.028Z,96922.91
2019-05-05T05:06:45.183Z,96932.88
2019-05-05T05:09:14.792Z,96938.08
2019-05-05T05:11:44.401Z,96944.69
2019-05-05T05:14:14.437Z,96950.23
2019-05-05T05:16:44.243Z,96950.65
2019-05-05T05:19:13.949Z,96961.30
2019-05-05T05:21:43.770Z,96965.69
2019-05-05T05:24:14.665Z,96974.31
2019-05-05T05:26:44.359Z,96975.48
2019-05-05T05:29:15.069Z,96977.89
2019-05-05T05:31:45.377Z,96976.90
2019-05-05T05:34:15.062Z,96976.70
2019-05-05T05:36:44.584Z,96982.66
2019-05-05T05:39:33.655Z,96984.01
2019-05-05T05:42:04.574Z,96987.47
2019-05-05T05:44:51.003Z,96980.16
2019-05-05T05:47:25.406Z,96988.58
2019-05-05T05:50:06.605Z,96990.34
2019-05-05T05:52:36.118Z,96996.55
2019-05-05T05:55:06.008Z,97001.06
2019-05-05T05:57:35.547Z,97003.52
2019-05-05T06:00:05.876Z,97012.11
2019-05-05T06:02:35.399Z,97007.69
2019-05-05T06:05:05.511Z,97014.06
2019-05-05T06:07:35.091Z,97005.52
2019-05-05T06:10:05.213Z,97014.05
2019-05-05T06:12:34.796Z,97014.98
2019-05-05T06:15:04.628Z,97011.05
2019-05-05T06:17:34.443Z,97018.23
2019-05-05T06:20:04.742Z,97020.09
2019-05-05T06:22:34.563Z,97020.75
2019-05-05T06:25:06.605Z,97027.38
2019-05-05T06:27:35.447Z,97034.61
2019-05-05T06:30:05.452Z,97037.89
2019-05-05T06:32:35.061Z,97040.98
2019-05-05T06:35:05.306Z,97050.71
2019-05-05T06:37:34.859Z,97048.66
2019-05-05T06:40:06.294Z,97046.69
2019-05-05T06:42:43.527Z,97055.88
2019-05-05T06:45:23.893Z,97048.27
2019-05-05T06:47:53.764Z,97052.15
2019-05-05T06:50:24.291Z,97047.55
2019-05-05T06:52:53.944Z,97054.73
2019-05-05T06:55:24.532Z,97054.99
2019-05-05T06:57:54.052Z,97067.57
2019-05-05T07:00:24.153Z,97065.40
2019-05-05T07:02:54.157Z,97064.65
2019-05-05T07:05:23.798Z,97071.87
2019-05-05T07:07:53.783Z,97072.79
2019-05-05T07:10:24.442Z,97074.13
2019-05-05T07:12:54.433Z,97069.80
2019-05-05T07:15:23.969Z,97080.78
2019-05-05T07:17:53.635Z,97082.58
2019-05-05T07:20:24.119Z,97083.08
2019-05-05T07:22:59.778Z,97072.97
2019-05-05T07:25:24.885Z,97076.14
2019-05-05T07:27:54.814Z,97075.52
2019-05-05T07:30:24.418Z,97085.94
2019-05-05T07:32:57.374Z,97084.30
2019-05-05T07:35:37.429Z,97087.76
2019-05-05T07:38:06.985Z,97093.09
2019-05-05T07:40:36.578Z,97087.48
2019-05-05T07:43:06.132Z,97099.02
2019-05-05T07:45:36.978Z,97089.56
2019-05-05T07:48:06.513Z,97091.86
2019-05-05T07:50:36.361Z,97098.98
2019-05-05T07:53:14.618Z,97112.37
2019-05-05T07:55:37.508Z,97107.03
2019-05-05T07:58:07.019Z,97108.87
2019-05-05T08:00:36.668Z,97104.23
2019-05-05T08:03:06.255Z,97099.81
2019-05-05T08:05:37.827Z,97110.10
2019-05-05T08:08:07.112Z,97104.99
2019-05-05T08:10:36.778Z,97103.73
2019-05-05T08:13:06.289Z,97106.38
2019-05-05T08:15:36.077Z,97107.63
2019-05-05T08:18:18.189Z,97114.66
2019-05-05T08:20:50.278Z,97120.37
2019-05-05T08:23:31.965Z,97112.56
2019-05-05T08:26:07.248Z,97116.63
2019-05-05T08:28:44.907Z,97112.95
2019-05-05T08:31:27.971Z,97112.56
2019-05-05T08:33:57.484Z,97115.38
2019-05-05T08:36:27.158Z,97117.64
2019-05-05T08:38:56.841Z,97117.61
2019-05-05T08:41:26.334Z,97122.16
2019-05-05T08:43:55.971Z,97116.09
2019-05-05T08:46:25.633Z,97114.14
2019-05-05T08:48:55.318Z,97111.06
2019-05-05T08:51:24.831Z,97109.50
2019-05-05T08:53:54.638Z,97101.56
2019-05-05T08:56:24.393Z,97110.89
2019-05-05T08:58:54.558Z,97097.39
2019-05-05T09:01:24.249Z,97102.80
2019-05-05T09:03:53.860Z,97098.15
2019-05-05T09:06:24.167Z,97105.52
2019-05-05T09:08:54.756Z,97101.87
2019-05-05T09:11:24.675Z,97099.16
2019-05-05T09:13:54.219Z,97098.28
2019-05-05T09:16:24.240Z,97097.80
2019-05-05T09:18:59.812Z,97097.41
2019-05-05T09:22:28.721Z,97100.21
2019-05-05T09:25:48.502Z,97093.02
2019-05-05T09:28:17.504Z,97092.31
2019-05-05T09:30:47.983Z,97098.02
2019-05-05T09:33:18.395Z,97100.08
2019-05-05T09:35:48.393Z,97094.23
2019-05-05T09:38:18.497Z,97088.09
2019-05-05T09:40:48.138Z,97091.30
2019-05-05T09:43:17.810Z,97093.45
2019-05-05T09:45:47.413Z,97083.40
2019-05-05T09:48:17.157Z,97088.80
2019-05-05T09:51:28.774Z,97094.33
2019-05-05T09:54:11.014Z,97091.03
2019-05-05T09:56:29.737Z,97089.77
2019-05-05T09:58:59.255Z,97092.17
2019-05-05T10:01:28.964Z,97091.65
2019-05-05T10:04:08.311Z,97098.59
2019-05-05T10:06:38.709Z,97100.73
2019-05-05T10:09:09.457Z,97098.50
2019-05-05T10:11:39.421Z,97096.97
2019-05-05T10:14:09.375Z,97102.80
2019-05-05T10:16:39.112Z,97104.60
2019-05-05T10:19:08.810Z,97113.48
2019-05-05T10:21:38.411Z,97111.90
2019-05-05T10:24:27.775Z,97108.03
2019-05-05T10:26:46.304Z,97110.45
2019-05-05T10:29:15.885Z,97110.53
2019-05-05T10:31:47.132Z,97112.34
2019-05-05T10:34:17.926Z,97110.80
2019-05-05T10:36:47.597Z,97109.27
2019-05-05T10:39:33.459Z,97108.73
2019-05-05T10:42:04.085Z,97115.48
2019-05-05T10:44:34.165Z,97113.03
2019-05-05T10:47:04.609Z,97113.52
2019-05-05T10:49:34.333Z,97114.48
2019-05-05T10:52:04.009Z,97108.81
2019-05-05T10:54:43.191Z,97108.20
2019-05-05T10:57:04.966Z,97105.86
2019-05-05T10:59:34.606Z,97100.23
2019-05-05T11:02:05.091Z,97105.24
2019-05-05T11:04:34.929Z,97104.95
2019-05-05T11:07:04.649Z,97103.23
2019-05-05T11:09:34.660Z,97107.00
2019-05-05T11:12:04.274Z,97113.11
2019-05-05T11:14:33.893Z,97117.89
2019-05-05T11:17:04.259Z,97119.05
2019-05-05T11:19:34.010Z,97119.80
2019-05-05T11:22:03.724Z,97114.48
2019-05-05T11:24:34.580Z,97109.47
2019-05-05T11:27:04.611Z,97111.84
2019-05-05T11:29:35.731Z,97112.41
2019-05-05T11:32:10.193Z,97123.44
2019-05-05T11:34:39.723Z,97118.38
2019-05-05T11:37:11.971Z,97117.33
2019-05-05T11:39:41.571Z,97118.24
2019-05-05T11:42:11.101Z,97122.33
2019-05-05T11:44:40.644Z,97120.87
2019-05-05T11:47:10.237Z,97127.06
2019-05-05T11:49:39.919Z,97132.12
2019-05-05T11:52:09.441Z,97129.00
2019-05-05T11:54:39.018Z,97128.73
2019-05-05T11:57:08.657Z,97130.27
2019-05-05T11:59:38.158Z,97136.59
2019-05-05T12:02:07.719Z,97127.57
2019-05-05T12:04:37.390Z,97118.55
2019-05-05T12:07:07.031Z,97121.13
2019-05-05T12:09:45.910Z,97123.11
2019-05-05T12:12:15.462Z,97125.97
2019-05-05T12:14:45.361Z,97128.68
2019-05-05T12:17:18.388Z,97127.92
2019-05-05T12:19:48.560Z,97135.70
2019-05-05T12:22:18.334Z,97132.09
2019-05-05T12:24:49.436Z,97129.10
2019-05-05T12:27:27.952Z,97140.21
2019-05-05T12:30:06.721Z,97135.28
2019-05-05T12:32:36.360Z,97138.41
2019-05-05T12:35:06.080Z,97126.88
2019-05-05T12:37:35.736Z,97125.78
2019-05-05T12:40:07.652Z,97134.73
2019-05-05T12:42:37.222Z,97133.97
2019-05-05T12:45:09.398Z,97125.64
2019-05-05T12:47:56.433Z,97125.71
2019-05-05T12:50:26.124Z,97121.27
2019-05-05T12:52:55.741Z,97126.55
2019-05-05T12:55:38.337Z,97126.06
2019-05-05T12:57:56.777Z,97132.31
2019-05-05T13:00:26.359Z,97132.80
2019-05-05T13:02:56.283Z,97125.98
2019-05-05T13:05:25.867Z,97131.27
2019-05-05T13:07:55.396Z,97134.26
2019-05-05T13:10:25.599Z,97134.19
2019-05-05T13:12:55.283Z,97135.78
2019-05-05T13:15:25.127Z,97135.09
2019-05-05T13:17:54.662Z,97145.92
2019-05-05T13:20:39.155Z,97138.98
2019-05-05T13:23:26.513Z,97142.72
2019-05-05T13:26:11.932Z,97146.47
2019-05-05T13:28:43.636Z,97138.83
2019-05-05T13:31:13.978Z,97133.34
2019-05-05T13:33:44.270Z,97137.92
2019-05-05T13:36:14.187Z,97132.30
2019-05-05T13:38:43.982Z,97138.06
2019-05-05T13:41:13.568Z,97137.72
2019-05-05T13:43:43.244Z,97136.39
2019-05-05T13:46:17.578Z,97144.93
2019-05-05T13:48:47.189Z,97141.59
2019-05-05T13:51:17.042Z,97145.91
2019-05-05T13:53:46.683Z,97143.96
2019-05-05T13:56:16.257Z,97143.69
2019-05-05T13:58:45.891Z,97147.72
2019-05-05T14:01:15.479Z,97148.41
2019-05-05T14:03:45.187Z,97148.28
2019-05-05T14:06:14.873Z,97138.55
2019-05-05T14:08:44.948Z,97145.84
2019-05-05T14:11:14.643Z,97145.23
2019-05-05T14:13:45.639Z,97144.25
2019-05-05T14:16:15.511Z,97137.17
2019-05-05T14:18:45.059Z,97141.83
2019-05-05T14:21:14.596Z,97140.99
2019-05-05T14:24:21.236Z,97146.13
2019-05-05T14:26:50.842Z,97138.22
2019-05-05T14:29:41.294Z,97134.25
2019-05-05T14:32:13.556Z,97137.73
2019-05-05T14:34:46.232Z,97138.91
2019-05-05T14:37:25.610Z,97137.11
2019-05-05T14:39:55.285Z,97127.73
2019-05-05T14:42:24.935Z,97126.55
2019-05-05T14:44:54.736Z,97124.32
2019-05-05T14:47:24.641Z,97128.70
2019-05-05T14:49:54.358Z,97131.33
2019-05-05T14:52:24.719Z,97127.23
2019-05-05T14:54:54.633Z,97125.48
2019-05-05T14:57:28.051Z,97126.98
2019-05-05T14:59:57.698Z,97134.98
2019-05-05T15:02:27.263Z,97125.94
2019-05-05T15:04:59.472Z,97125.52
2019-05-05T15:07:54.258Z,97128.42
2019-05-05T15:10:43.933Z,97133.56
2019-05-05T15:13:14.766Z,97139.25
2019-05-05T15:15:44.363Z,97140.69
2019-05-05T15:18:14.662Z,97134.00
2019-05-05T15:20:44.308Z,97139.62
2019-05-05T15:23:13.877Z,97140.86
2019-05-05T15:25:44.650Z,97138.33
2019-05-05T15:28:14.264Z,97135.23
2019-05-05T15:30:44.201Z,97145.31
2019-05-05T15:33:13.961Z,97152.21
2019-05-05T15:35:46.438Z,97141.20
2019-05-05T15:38:14.963Z,97137.04
2019-05-05T15:40:47.918Z,97146.38
2019-05-05T15:43:16.039Z,97150.83
2019-05-05T15:45:45.894Z,97136.64
2019-05-05T15:48:15.521Z,97145.06
2019-05-05T15:50:45.241Z,97151.95
2019-05-05T15:53:14.952Z,97145.28
2019-05-05T15:55:44.735Z,97153.36
2019-05-05T15:58:14.451Z,97159.27
2019-05-05T16:00:44.369Z,97157.20
2019-05-05T16:03:14.200Z,97157.83
2019-05-05T16:05:43.842Z,97153.11
2019-05-05T16:08:14.135Z,97150.55
2019-05-05T16:10:46.512Z,97160.00
2019-05-05T16:13:15.248Z,97160.20
2019-05-05T16:16:01.204Z,97157.64
2019-05-05T16:18:48.635Z,97159.80
2019-05-05T16:21:54.360Z,97153.82
2019-05-05T16:24:26.175Z,97154.73
2019-05-05T16:26:55.766Z,97155.77
2019-05-05T16:29:25.388Z,97157.09
2019-05-05T16:31:55.102Z,97143.54
2019-05-05T16:34:24.722Z,97152.16
2019-05-05T16:36:56.936Z,97153.19
2019-05-05T16:39:25.846Z,97156.33
2019-05-05T16:41:55.498Z,97156.47
2019-05-05T16:44:25.168Z,97152.98
2019-05-05T16:46:57.290Z,97161.05
2019-05-05T16:49:26.026Z,97155.77
2019-05-05T16:52:03.915Z,97161.26
2019-05-05T16:54:38.056Z,97160.56
2019-05-05T16:57:07.624Z,97161.05
2019-05-05T16:59:37.148Z,97165.50
2019-05-05T17:02:06.808Z,97165.50
2019-05-05T17:04:36.277Z,97161.05
2019-05-05T17:07:06.003Z,97167.59
2019-05-05T17:09:35.475Z,97165.58
2019-05-05T17:12:10.859Z,97158.00
2019-05-05T17:15:06.042Z,97156.61
2019-05-05T17:17:44.655Z,97167.59
2019-05-05T17:20:16.986Z,97164.61
2019-05-05T17:23:00.256Z,97166.90
2019-05-05T17:25:29.872Z,97166.69
2019-05-05T17:27:59.477Z,97167.18
2019-05-05T17:30:29.394Z,97172.46
2019-05-05T17:32:59.264Z,97170.45
2019-05-05T17:35:28.845Z,97175.07
2019-05-05T17:38:08.039Z,97180.59
2019-05-05T17:40:54.952Z,97179.42
2019-05-05T17:43:47.978Z,97183.31
2019-05-05T17:46:27.960Z,97181.30
2019-05-05T17:49:28.753Z,97185.39
2019-05-05T17:52:06.292Z,97192.83
2019-05-05T17:54:47.780Z,97199.92
2019-05-05T17:57:17.328Z,97199.57
2019-05-05T17:59:48.075Z,97207.56
2019-05-05T18:02:17.600Z,97202.20
2019-05-05T18:04:47.303Z,97205.95
2019-05-05T18:07:35.896Z,97203.31
2019-05-05T18:10:23.994Z,97207.89
2019-05-05T18:13:14.244Z,97202.81
2019-05-05T18:15:58.819Z,97205.66
2019-05-05T18:18:28.498Z,97206.55
2019-05-05T18:20:57.989Z,97208.05
2019-05-05T18:23:27.670Z,97211.70
2019-05-05T18:25:57.862Z,97215.80
2019-05-05T18:28:27.453Z,97211.05
2019-05-05T18:30:56.954Z,97223.90
2019-05-05T18:33:26.496Z,97224.08
2019-05-05T18:35:56.053Z,97227.72
2019-05-05T18:38:25.779Z,97235.20
2019-05-05T18:40:57.037Z,97228.55
2019-05-05T18:43:36.091Z,97235.75
2019-05-05T18:46:05.720Z,97246.62
2019-05-05T18:48:35.419Z,97248.00
2019-05-05T18:51:05.163Z,97243.66
2019-05-05T18:53:34.794Z,97242.22
2019-05-05T18:56:04.413Z,97250.89
2019-05-05T18:58:34.836Z,97249.27
2019-05-05T19:01:26.884Z,97251.02
2019-05-05T19:04:13.949Z,97260.39
2019-05-05T19:06:49.032Z,97259.47
2019-05-05T19:09:20.829Z,97265.80
2019-05-05T19:11:50.435Z,97271.45
2019-05-05T19:14:20.043Z,97271.94
2019-05-05T19:16:49.606Z,97272.31
2019-05-05T19:19:19.320Z,97265.95
2019-05-05T19:21:54.713Z,97274.44
2019-05-05T19:24:24.392Z,97280.31
2019-05-05T19:26:55.915Z,97280.19
2019-05-05T19:29:25.302Z,97278.65
2019-05-05T19:31:54.893Z,97284.14
2019-05-05T19:34:24.749Z,97284.62
2019-05-05T19:36:54.743Z,97280.53
2019-05-05T19:39:24.464Z,97285.23
2019-05-05T19:41:54.570Z,97284.84
2019-05-05T19:44:26.122Z,97283.66
2019-05-05T19:47:13.775Z,97282.16
2019-05-05T19:49:46.839Z,97284.14
2019-05-05T19:52:16.449Z,97279.97
2019-05-05T19:54:47.613Z,97281.98
2019-05-05T19:57:17.427Z,97282.95
2019-05-05T19:59:46.999Z,97282.38
2019-05-05T20:02:16.606Z,97283.44
2019-05-05T20:04:46.201Z,97281.86
2019-05-05T20:07:15.783Z,97284.75
2019-05-05T20:09:45.349Z,97289.41
2019-05-05T20:12:15.024Z,97283.44
2019-05-05T20:14:44.605Z,97282.47
2019-05-05T20:17:21.035Z,97280.19
2019-05-05T20:19:50.983Z,97289.77
2019-05-05T20:22:20.803Z,97283.92
2019-05-05T20:24:50.409Z,97284.05
2019-05-05T20:27:20.023Z,97281.06
2019-05-05T20:29:49.672Z,97275.34
2019-05-05T20:32:24.967Z,97280.03
2019-05-05T20:35:14.834Z,97275.86
2019-05-05T20:37:50.717Z,97286.88
2019-05-05T20:40:24.447Z,97280.80
2019-05-05T20:42:54.401Z,97273.00
2019-05-05T20:45:26.762Z,97281.99
2019-05-05T20:47:56.376Z,97278.05
2019-05-05T20:50:25.977Z,97284.38
2019-05-05T20:52:55.535Z,97283.31
2019-05-05T20:55:25.990Z,97283.16
2019-05-05T20:57:55.777Z,97275.05
2019-05-05T21:00:25.385Z,97277.88
2019-05-05T21:02:54.988Z,97279.09
2019-05-05T21:05:24.651Z,97274.54
2019-05-05T21:07:54.265Z,97271.55
2019-05-05T21:10:24.282Z,97275.41
2019-05-05T21:12:54.518Z,97276.92
2019-05-05T21:15:24.812Z,97275.85
2019-05-05T21:17:54.581Z,97281.16
2019-05-05T21:20:24.269Z,97276.23
2019-05-05T21:23:04.648Z,97275.30
2019-05-05T21:25:36.641Z,97282.24
2019-05-05T21:28:06.246Z,97276.39
2019-05-05T21:30:35.835Z,97274.14
2019-05-05T21:33:05.965Z,97281.31
2019-05-05T21:35:35.502Z,97277.97
2019-05-05T21:38:05.283Z,97276.42
2019-05-05T21:40:34.903Z,97279.41
2019-05-05T21:43:05.152Z,97277.00
2019-05-05T21:45:35.006Z,97272.92
2019-05-05T21:48:04.670Z,97275.69
2019-05-05T21:50:39.650Z,97276.91
2019-05-05T21:53:17.363Z,97273.69
2019-05-05T21:56:05.945Z,97270.59
2019-05-05T21:58:43.974Z,97272.12
2019-05-05T22:01:18.970Z,97275.00
2019-05-05T22:03:48.575Z,97276.70
2019-05-05T22:06:18.185Z,97271.33
2019-05-05T22:08:47.842Z,97269.42
2019-05-05T22:11:17.525Z,97275.66
2019-05-05T22:13:47.209Z,97269.70
2019-05-05T22:16:16.773Z,97270.58
2019-05-05T22:18:46.843Z,97268.17
2019-05-05T22:21:31.284Z,97266.00
2019-05-05T22:24:15.959Z,97262.78
2019-05-05T22:26:45.898Z,97260.16
2019-05-05T22:29:17.164Z,97260.80
2019-05-05T22:31:48.361Z,97261.60
2019-05-05T22:34:17.974Z,97266.05
2019-05-05T22:36:47.660Z,97259.64
2019-05-05T22:39:17.317Z,97258.80
2019-05-05T22:41:46.878Z,97265.22
2019-05-05T22:44:16.502Z,97256.60
2019-05-05T22:46:46.430Z,97265.41
2019-05-05T22:49:16.048Z,97263.00
2019-05-05T22:51:45.751Z,97265.27
2019-05-05T22:54:15.462Z,97260.38
2019-05-05T22:56:45.065Z,97268.77
2019-05-05T22:59:14.891Z,97272.47
2019-05-05T23:01:46.945Z,97273.25
2019-05-05T23:04:31.592Z,97280.36
2019-05-05T23:07:05.116Z,97274.56
2019-05-05T23:09:34.837Z,97274.63
2019-05-05T23:12:04.484Z,97270.81
2019-05-05T23:14:34.395Z,97271.07
2019-05-05T23:17:28.794Z,97272.56
2019-05-05T23:20:16.420Z,97268.73
2019-05-05T23:23:08.250Z,97274.20
2019-05-05T23:25:40.885Z,97279.37
2019-05-05T23:28:10.512Z,97267.83
2019-05-05T23:30:41.982Z,97268.84
2019-05-05T23:33:11.437Z,97280.06
2019-05-05T23:35:43.700Z,97268.92
2019-05-05T23:38:14.363Z,97271.06
2019-05-05T23:40:44.015Z,97276.60
2019-05-05T23:43:13.977Z,97268.58
2019-05-05T23:45:44.831Z,97262.82
2019-05-05T23:48:14.529Z,97270.54
2019-05-05T23:50:44.578Z,97264.91
2019-05-05T23:53:14.249Z,97264.83
2019-05-05T23:55:44.120Z,97265.45
2019-05-05T23:58:14.486Z,97264.52
